Tour Pomerol — 9V9183 — position and weather

sailwx.info

Track history (hours):
 
Tides and Currents Weather Stations Pressure Air Temp Water Temp Dewpoint Dewpoint Depression Visibility Wind Speed Wind Dir Waves Ship Positions

Tour Pomerol

Last reported at 2015-Jan-18 19:10 UTC. Time now 2015-Jan-30 06:27 UTC.
Position N 06°10' E 003°25'.
Warning: this ship's position is 11 days out of date.

Length 120 m; draft 6.8 m.

Type: Tanker. MMSI: 563384980.

Date/timePositionNaut miles runAvg speedWind from/ knotsBaromVisibWave heightAir tempDewpointWater temp
2015-Jan-18 19:10N 06°10' E 003°25'813.2
2015-Jan-18 18:33N 06°18' E 003°25'9 8.7
2015-Jan-18 17:33N 06°27' E 003°23'0 0.1
2015-Jan-18 16:32N 06°27' E 003°23'0 0.0
2015-Jan-18 15:32N 06°27' E 003°23'0 0.0
2015-Jan-18 14:32N 06°27' E 003°23'0 0.0
2015-Jan-18 13:32N 06°27' E 003°23'0 0.0
2015-Jan-18 12:29N 06°27' E 003°23'0 0.0
2015-Jan-18 11:29N 06°27' E 003°23'0 0.0
2015-Jan-18 10:32N 06°27' E 003°23'0 0.0
2015-Jan-18 09:32N 06°27' E 003°23'0 0.0
2015-Jan-18 08:32N 06°27' E 003°23'0 0.0
2015-Jan-18 07:32N 06°27' E 003°23'0 0.0
2015-Jan-18 06:32N 06°27' E 003°23'0 0.0
2015-Jan-18 05:32N 06°27' E 003°23'0 0.0
2015-Jan-18 04:32N 06°27' E 003°23'0 0.0
2015-Jan-18 03:32N 06°27' E 003°23'0 0.0
2015-Jan-18 02:26N 06°27' E 003°23'0 0.0
2015-Jan-18 01:32N 06°27' E 003°23'0 0.0
2015-Jan-18 00:32N 06°27' E 003°23'0 0.0
2015-Jan-17 23:32N 06°27' E 003°23'0 0.0
2015-Jan-17 22:32N 06°27' E 003°23'0 0.0
2015-Jan-17 21:32N 06°27' E 003°23'0 0.0
2015-Jan-17 20:32N 06°27' E 003°23'0 0.0
2015-Jan-17 19:31N 06°27' E 003°23'0 0.0
2015-Jan-17 18:31N 06°27' E 003°23'0 0.0
2015-Jan-17 17:32N 06°27' E 003°23'0 0.0
2015-Jan-17 16:32N 06°27' E 003°23'0 0.0
2015-Jan-17 15:29N 06°27' E 003°23'0 0.0
2015-Jan-17 14:32N 06°27' E 003°23'0 0.0
2015-Jan-17 13:32N 06°27' E 003°23'0 0.0
2015-Jan-17 12:29N 06°27' E 003°23'0 0.0
2015-Jan-17 11:29N 06°27' E 003°23'0 0.0
2015-Jan-17 10:23N 06°27' E 003°23'0 0.0
2015-Jan-17 09:32N 06°27' E 003°23'0 0.0
2015-Jan-17 08:32N 06°27' E 003°23'0 0.0
2015-Jan-17 07:32N 06°27' E 003°23'0 0.0
2015-Jan-17 06:32N 06°27' E 003°23'0 0.0
2015-Jan-17 05:32N 06°27' E 003°23'0 0.0
2015-Jan-17 04:31N 06°27' E 003°23'0 0.0
2015-Jan-17 03:31N 06°27' E 003°23'0 0.0
2015-Jan-17 02:32N 06°27' E 003°23'0 0.0
2015-Jan-17 01:29N 06°27' E 003°23'0 0.0
2015-Jan-17 00:32N 06°27' E 003°23'4 1.7
2015-Jan-16 22:04N 06°23' E 003°24'2 3.9
2015-Jan-16 21:33N 06°21' E 003°25'6 6.1
2015-Jan-16 20:33N 06°15' E 003°28'2 2.5
2015-Jan-16 19:32N 06°13' E 003°28'4 4.4
2015-Jan-16 18:32N 06°17' E 003°28'4 4.0
2015-Jan-16 17:33N 06°13' E 003°27'4 4.5
2015-Jan-16 16:33N 06°18' E 003°28'3 3.1
2015-Jan-16 15:33N 06°15' E 003°27'4 4.3
2015-Jan-16 14:33N 06°14' E 003°23'3 2.6
2015-Jan-16 13:33N 06°14' E 003°21'5 4.6
2015-Jan-16 12:34N 06°14' E 003°25'3 3.0
2015-Jan-16 11:33N 06°13' E 003°28'4 3.9
2015-Jan-16 10:32N 06°17' E 003°28'1010.5
2015-Jan-16 09:33N 06°07' E 003°25'  
Track history (hours):
 
Tides and Currents Weather Stations Pressure Air Temp Water Temp Dewpoint Dewpoint Depression Visibility Wind Speed Wind Dir Waves Ship Positions

Tour Pomerol

Last reported at 2015-Jan-18 19:10 UTC. Time now 2015-Jan-30 06:27 UTC.
Position N 06°10' E 003°25'.
Warning: this ship's position is 11 days out of date.

Length 120 m; draft 6.8 m.

Type: Tanker. MMSI: 563384980.

Date/timePositionNaut miles runAvg speedWind from/ knotsBaromVisibWave heightAir tempDewpointWater temp
2015-Jan-18 19:10N 06°10' E 003°25'813.2
2015-Jan-18 18:33N 06°18' E 003°25'9 8.7
2015-Jan-18 17:33N 06°27' E 003°23'0 0.1
2015-Jan-18 16:32N 06°27' E 003°23'0 0.0
2015-Jan-18 15:32N 06°27' E 003°23'0 0.0
2015-Jan-18 14:32N 06°27' E 003°23'0 0.0
2015-Jan-18 13:32N 06°27' E 003°23'0 0.0
2015-Jan-18 12:29N 06°27' E 003°23'0 0.0
2015-Jan-18 11:29N 06°27' E 003°23'0 0.0
2015-Jan-18 10:32N 06°27' E 003°23'0 0.0
2015-Jan-18 09:32N 06°27' E 003°23'0 0.0
2015-Jan-18 08:32N 06°27' E 003°23'0 0.0
2015-Jan-18 07:32N 06°27' E 003°23'0 0.0
2015-Jan-18 06:32N 06°27' E 003°23'0 0.0
2015-Jan-18 05:32N 06°27' E 003°23'0 0.0
2015-Jan-18 04:32N 06°27' E 003°23'0 0.0
2015-Jan-18 03:32N 06°27' E 003°23'0 0.0
2015-Jan-18 02:26N 06°27' E 003°23'0 0.0
2015-Jan-18 01:32N 06°27' E 003°23'0 0.0
2015-Jan-18 00:32N 06°27' E 003°23'0 0.0
2015-Jan-17 23:32N 06°27' E 003°23'0 0.0
2015-Jan-17 22:32N 06°27' E 003°23'0 0.0
2015-Jan-17 21:32N 06°27' E 003°23'0 0.0
2015-Jan-17 20:32N 06°27' E 003°23'0 0.0
2015-Jan-17 19:31N 06°27' E 003°23'0 0.0
2015-Jan-17 18:31N 06°27' E 003°23'0 0.0
2015-Jan-17 17:32N 06°27' E 003°23'0 0.0
2015-Jan-17 16:32N 06°27' E 003°23'0 0.0
2015-Jan-17 15:29N 06°27' E 003°23'0 0.0
2015-Jan-17 14:32N 06°27' E 003°23'0 0.0
2015-Jan-17 13:32N 06°27' E 003°23'0 0.0
2015-Jan-17 12:29N 06°27' E 003°23'0 0.0
2015-Jan-17 11:29N 06°27' E 003°23'0 0.0
2015-Jan-17 10:23N 06°27' E 003°23'0 0.0
2015-Jan-17 09:32N 06°27' E 003°23'0 0.0
2015-Jan-17 08:32N 06°27' E 003°23'0 0.0
2015-Jan-17 07:32N 06°27' E 003°23'0 0.0
2015-Jan-17 06:32N 06°27' E 003°23'0 0.0
2015-Jan-17 05:32N 06°27' E 003°23'0 0.0
2015-Jan-17 04:31N 06°27' E 003°23'0 0.0
2015-Jan-17 03:31N 06°27' E 003°23'0 0.0
2015-Jan-17 02:32N 06°27' E 003°23'0 0.0
2015-Jan-17 01:29N 06°27' E 003°23'0 0.0
2015-Jan-17 00:32N 06°27' E 003°23'4 1.7
2015-Jan-16 22:04N 06°23' E 003°24'2 3.9
2015-Jan-16 21:33N 06°21' E 003°25'6 6.1
2015-Jan-16 20:33N 06°15' E 003°28'2 2.5
2015-Jan-16 19:32N 06°13' E 003°28'4 4.4
2015-Jan-16 18:32N 06°17' E 003°28'4 4.0
2015-Jan-16 17:33N 06°13' E 003°27'4 4.5
2015-Jan-16 16:33N 06°18' E 003°28'3 3.1
2015-Jan-16 15:33N 06°15' E 003°27'4 4.3
2015-Jan-16 14:33N 06°14' E 003°23'3 2.6
2015-Jan-16 13:33N 06°14' E 003°21'5 4.6
2015-Jan-16 12:34N 06°14' E 003°25'3 3.0
2015-Jan-16 11:33N 06°13' E 003°28'4 3.9
2015-Jan-16 10:32N 06°17' E 003°28'1010.5
2015-Jan-16 09:33N 06°07' E 003°25'  

Dump ship's entire track history